createdAt,value
2018-08-04T00:00:52.229Z,0.00
2018-08-04T00:01:52.201Z,0.00
2018-08-04T00:02:52.190Z,0.00
2018-08-04T00:03:52.133Z,0.00
2018-08-04T00:04:52.097Z,0.00
2018-08-04T00:05:52.064Z,0.00
2018-08-04T00:06:52.022Z,0.00
2018-08-04T00:07:52.006Z,0.00
2018-08-04T00:08:51.960Z,0.00
2018-08-04T00:09:51.922Z,0.00
2018-08-04T00:10:51.881Z,0.00
2018-08-04T00:11:51.847Z,0.00
2018-08-04T00:12:51.833Z,0.00
2018-08-04T00:13:51.777Z,0.00
2018-08-04T00:14:51.749Z,0.00
2018-08-04T00:15:51.711Z,0.00
2018-08-04T00:16:51.679Z,0.00
2018-08-04T00:17:51.673Z,0.00
2018-08-04T00:18:51.601Z,0.00
2018-08-04T00:19:51.570Z,0.00
2018-08-04T00:20:51.534Z,0.00
2018-08-04T00:21:51.497Z,0.00
2018-08-04T00:22:51.472Z,0.00
2018-08-04T00:23:51.454Z,0.00
2018-08-04T00:24:51.396Z,0.00
2018-08-04T00:25:51.358Z,0.00
2018-08-04T00:26:51.333Z,0.00
2018-08-04T00:27:51.314Z,0.00
2018-08-04T00:28:51.257Z,0.00
2018-08-04T00:29:51.228Z,0.00
2018-08-04T00:30:51.182Z,0.00
2018-08-04T00:31:51.146Z,0.00
2018-08-04T00:32:51.142Z,0.00
2018-08-04T00:33:51.082Z,0.00
2018-08-04T00:34:51.057Z,0.00
2018-08-04T00:35:51.021Z,0.00
2018-08-04T00:36:50.977Z,0.00
2018-08-04T00:37:50.965Z,0.00
2018-08-04T00:38:50.902Z,0.00
2018-08-04T00:39:50.869Z,0.00
2018-08-04T00:40:50.837Z,0.00
2018-08-04T00:41:50.802Z,0.00
2018-08-04T00:42:50.786Z,0.00
2018-08-04T00:43:50.731Z,0.00
2018-08-04T00:44:50.696Z,0.00
2018-08-04T00:45:50.676Z,0.00
2018-08-04T00:46:50.631Z,0.00
2018-08-04T00:47:50.622Z,0.00
2018-08-04T00:48:50.561Z,0.00
2018-08-04T00:49:50.526Z,0.00
2018-08-04T00:50:50.484Z,0.00
2018-08-04T00:51:50.451Z,0.00
2018-08-04T00:52:50.442Z,0.00
2018-08-04T00:53:50.377Z,0.00
2018-08-04T00:54:50.351Z,0.00
2018-08-04T00:55:50.315Z,0.00
2018-08-04T00:56:50.281Z,0.00
2018-08-04T00:57:50.261Z,0.00
2018-08-04T00:58:50.214Z,0.00
2018-08-04T00:59:50.177Z,0.00
2018-08-04T01:00:50.144Z,0.00
2018-08-04T01:01:50.130Z,0.00
2018-08-04T01:02:50.066Z,0.00
2018-08-04T01:03:50.034Z,0.00
2018-08-04T01:04:50.002Z,0.00
2018-08-04T01:05:49.960Z,0.00
2018-08-04T01:06:49.960Z,0.00
2018-08-04T01:07:49.903Z,0.00
2018-08-04T01:08:49.865Z,0.00
2018-08-04T01:09:49.830Z,0.00
2018-08-04T01:10:49.796Z,0.00
2018-08-04T01:11:49.776Z,0.00
2018-08-04T01:12:49.725Z,0.00
2018-08-04T01:13:49.688Z,0.00
2018-08-04T01:14:49.648Z,0.00
2018-08-04T01:15:49.619Z,0.00
2018-08-04T01:16:49.602Z,0.00
2018-08-04T01:17:49.547Z,0.00
2018-08-04T01:18:49.519Z,0.00
2018-08-04T01:19:49.482Z,0.00
2018-08-04T01:20:49.448Z,0.00
2018-08-04T01:21:49.436Z,0.00
2018-08-04T01:22:49.372Z,0.00
2018-08-04T01:23:49.338Z,0.00
2018-08-04T01:24:49.307Z,0.00
2018-08-04T01:25:49.269Z,0.00
2018-08-04T01:26:49.269Z,0.00
2018-08-04T01:27:49.207Z,0.00
2018-08-04T01:28:49.168Z,0.00
2018-08-04T01:29:49.133Z,0.00
2018-08-04T01:30:49.105Z,0.00
2018-08-04T01:31:49.069Z,0.00
2018-08-04T01:32:49.058Z,0.00
2018-08-04T01:33:49.000Z,0.00
2018-08-04T01:34:48.967Z,0.00
2018-08-04T01:35:48.920Z,0.00
2018-08-04T01:36:48.887Z,0.00
2018-08-04T01:37:48.880Z,0.00
2018-08-04T01:38:48.826Z,0.00
2018-08-04T01:39:48.797Z,0.00
2018-08-04T01:40:48.757Z,0.00
2018-08-04T01:41:48.721Z,0.00
2018-08-04T01:42:48.708Z,0.00
2018-08-04T01:43:48.648Z,0.00
2018-08-04T01:44:48.621Z,0.00
2018-08-04T01:45:48.585Z,0.00
2018-08-04T01:46:48.542Z,0.00
2018-08-04T01:47:48.507Z,0.00
2018-08-04T01:48:48.497Z,0.00
2018-08-04T01:49:48.440Z,0.00
2018-08-04T01:50:48.413Z,0.00
2018-08-04T01:51:48.377Z,0.00
2018-08-04T01:52:48.367Z,0.00
2018-08-04T01:53:48.332Z,0.00
2018-08-04T01:54:48.275Z,0.00
2018-08-04T01:55:48.231Z,0.00
2018-08-04T01:56:48.197Z,0.00
2018-08-04T01:57:48.162Z,0.00
2018-08-04T01:58:48.159Z,0.00
2018-08-04T01:59:48.099Z,0.00
2018-08-04T02:00:48.058Z,0.00
2018-08-04T02:01:48.027Z,0.00
2018-08-04T02:02:48.023Z,0.00
2018-08-04T02:03:47.969Z,0.00
2018-08-04T02:04:47.922Z,0.00
2018-08-04T02:05:47.890Z,0.00
2018-08-04T02:06:47.849Z,0.00
2018-08-04T02:07:47.843Z,0.00
2018-08-04T02:08:47.778Z,0.00
2018-08-04T02:09:47.744Z,0.00
2018-08-04T02:10:47.717Z,0.00
2018-08-04T02:11:47.678Z,0.00
2018-08-04T02:12:47.651Z,0.00
2018-08-04T02:13:47.639Z,0.00
2018-08-04T02:14:47.572Z,0.00
2018-08-04T02:15:47.535Z,0.00
2018-08-04T02:16:47.506Z,0.00
2018-08-04T02:17:47.472Z,0.00
2018-08-04T02:18:47.460Z,0.00
2018-08-04T02:19:47.401Z,0.00
2018-08-04T02:20:47.365Z,0.00
2018-08-04T02:21:47.325Z,0.00
2018-08-04T02:22:47.298Z,0.00
2018-08-04T02:23:47.263Z,0.00
2018-08-04T02:24:47.251Z,0.00
2018-08-04T02:25:47.195Z,0.00
2018-08-04T02:26:47.153Z,0.00
2018-08-04T02:27:47.119Z,0.00
2018-08-04T02:28:47.087Z,0.00
2018-08-04T02:29:47.079Z,0.00
2018-08-04T02:30:47.020Z,0.00
2018-08-04T02:31:46.983Z,0.00
2018-08-04T02:32:46.940Z,0.00
2018-08-04T02:33:46.909Z,0.00
2018-08-04T02:34:46.912Z,0.00
2018-08-04T02:35:46.846Z,0.00
2018-08-04T02:36:46.809Z,0.00
2018-08-04T02:37:46.796Z,0.00
2018-08-04T02:38:46.735Z,0.00
2018-08-04T02:39:46.724Z,0.00
2018-08-04T02:40:46.666Z,0.00
2018-08-04T02:41:46.629Z,0.00
2018-08-04T02:42:46.601Z,0.00
2018-08-04T02:43:46.566Z,0.00
2018-08-04T02:44:46.558Z,0.00
2018-08-04T02:45:46.494Z,0.00
2018-08-04T02:46:46.456Z,0.00
2018-08-04T02:47:46.425Z,0.00
2018-08-04T02:48:46.393Z,0.00
2018-08-04T02:49:46.378Z,0.00
2018-08-04T02:50:46.314Z,0.00
2018-08-04T02:51:46.278Z,0.00
2018-08-04T02:52:46.251Z,0.00
2018-08-04T02:53:46.208Z,0.00
2018-08-04T02:54:46.206Z,0.00
2018-08-04T02:55:46.145Z,0.00
2018-08-04T02:56:46.112Z,0.00
2018-08-04T02:57:46.074Z,0.00
2018-08-04T02:58:46.032Z,0.00
2018-08-04T02:59:46.035Z,0.00
2018-08-04T03:00:45.964Z,0.00
2018-08-04T03:01:45.941Z,0.00
2018-08-04T03:02:45.896Z,0.00
2018-08-04T03:03:45.864Z,0.00
2018-08-04T03:04:45.861Z,0.00
2018-08-04T03:05:45.797Z,0.00
2018-08-04T03:06:45.765Z,0.00
2018-08-04T03:07:45.727Z,0.00
2018-08-04T03:08:45.684Z,0.00
2018-08-04T03:09:45.673Z,0.00
2018-08-04T03:10:45.612Z,0.00
2018-08-04T03:11:45.577Z,0.00
2018-08-04T03:12:45.546Z,0.00
2018-08-04T03:13:45.515Z,0.00
2018-08-04T03:14:45.505Z,0.00
2018-08-04T03:15:45.447Z,0.00
2018-08-04T03:16:45.403Z,0.00
2018-08-04T03:17:45.365Z,0.00
2018-08-04T03:18:45.357Z,0.00
2018-08-04T03:19:45.298Z,0.00
2018-08-04T03:20:45.259Z,0.00
2018-08-04T03:21:45.232Z,0.00
2018-08-04T03:22:45.188Z,0.00
2018-08-04T03:23:45.176Z,0.00
2018-08-04T03:24:45.127Z,0.00
2018-08-04T03:25:45.092Z,0.00
2018-08-04T03:26:45.055Z,0.00
2018-08-04T03:27:45.043Z,0.00
2018-08-04T03:28:45.047Z,0.00
2018-08-04T03:29:44.956Z,0.00
2018-08-04T03:30:44.924Z,0.00
2018-08-04T03:31:44.983Z,0.00
2018-08-04T03:32:44.965Z,0.00
2018-08-04T03:33:44.804Z,0.00
2018-08-04T03:34:44.786Z,0.00
2018-08-04T03:35:44.728Z,0.00
2018-08-04T03:36:44.703Z,0.00
2018-08-04T03:37:44.667Z,0.00
2018-08-04T03:38:44.634Z,0.00
2018-08-04T03:39:44.619Z,0.00
2018-08-04T03:40:44.553Z,0.00
2018-08-04T03:41:44.520Z,0.00
2018-08-04T03:42:44.483Z,0.00
2018-08-04T03:43:44.445Z,0.00
2018-08-04T03:44:44.439Z,0.00
2018-08-04T03:45:44.382Z,0.00
2018-08-04T03:46:44.351Z,5.63
2018-08-04T03:47:44.313Z,5.63
2018-08-04T03:48:44.270Z,5.63
2018-08-04T03:49:44.268Z,5.63
2018-08-04T03:50:44.207Z,5.63
2018-08-04T03:51:44.177Z,11.25
2018-08-04T03:52:44.127Z,11.25
2018-08-04T03:53:44.093Z,11.25
2018-08-04T03:54:44.064Z,16.88
2018-08-04T03:55:44.065Z,16.88
2018-08-04T03:56:43.992Z,16.88
2018-08-04T03:57:43.960Z,16.88
2018-08-04T03:58:43.922Z,22.50
2018-08-04T03:59:43.987Z,22.50
2018-08-04T04:00:43.848Z,28.13
2018-08-04T04:01:43.814Z,28.13
2018-08-04T04:02:43.777Z,28.13
2018-08-04T04:03:43.741Z,28.13
2018-08-04T04:04:43.734Z,33.75
2018-08-04T04:05:43.690Z,33.75
2018-08-04T04:06:43.667Z,33.75
2018-08-04T04:07:43.599Z,33.75
2018-08-04T04:08:43.568Z,33.75
2018-08-04T04:09:43.575Z,33.75
2018-08-04T04:10:43.500Z,33.75
2018-08-04T04:11:43.459Z,39.38
2018-08-04T04:12:43.420Z,39.38
2018-08-04T04:13:43.386Z,39.38
2018-08-04T04:14:43.347Z,45.00
2018-08-04T04:15:43.345Z,45.00
2018-08-04T04:16:43.281Z,50.63
2018-08-04T04:17:43.248Z,56.25
2018-08-04T04:18:43.213Z,61.88
2018-08-04T04:19:43.169Z,61.88
2018-08-04T04:20:43.158Z,67.50
2018-08-04T04:21:43.108Z,67.50
2018-08-04T04:22:43.076Z,67.50
2018-08-04T04:23:43.037Z,73.13
2018-08-04T04:24:42.997Z,73.13
2018-08-04T04:25:42.988Z,78.75
2018-08-04T04:26:42.926Z,78.75
2018-08-04T04:27:42.894Z,78.75
2018-08-04T04:28:42.860Z,78.75
2018-08-04T04:29:42.868Z,78.75
2018-08-04T04:30:42.787Z,78.75
2018-08-04T04:31:42.771Z,84.38
2018-08-04T04:32:42.710Z,84.38
2018-08-04T04:33:42.677Z,90.00
2018-08-04T04:34:42.642Z,90.00
2018-08-04T04:35:42.619Z,95.63
2018-08-04T04:36:42.600Z,101.25
2018-08-04T04:37:42.532Z,106.88
2018-08-04T04:38:42.509Z,112.50
2018-08-04T04:39:42.477Z,118.13
2018-08-04T04:40:42.474Z,123.75
2018-08-04T04:41:42.426Z,129.38
2018-08-04T04:42:42.365Z,129.38
2018-08-04T04:43:42.324Z,129.38
2018-08-04T04:44:42.290Z,129.38
2018-08-04T04:45:42.261Z,129.38
2018-08-04T04:46:42.238Z,135.00
2018-08-04T04:47:42.208Z,140.63
2018-08-04T04:48:42.149Z,146.25
2018-08-04T04:49:42.114Z,146.25
2018-08-04T04:50:42.076Z,151.88
2018-08-04T04:51:42.049Z,151.88
2018-08-04T04:52:42.042Z,151.88
2018-08-04T04:53:41.972Z,146.25
2018-08-04T04:54:41.935Z,146.25
2018-08-04T04:55:41.907Z,140.63
2018-08-04T04:56:41.876Z,135.00
2018-08-04T04:57:41.861Z,135.00
2018-08-04T04:58:41.802Z,129.38
2018-08-04T04:59:41.758Z,129.38
2018-08-04T05:00:41.725Z,123.75
2018-08-04T05:01:41.697Z,123.75
2018-08-04T05:02:41.684Z,123.75
2018-08-04T05:03:41.633Z,123.75
2018-08-04T05:04:41.591Z,123.75
2018-08-04T05:05:41.557Z,129.38
2018-08-04T05:06:41.527Z,135.00
2018-08-04T05:07:41.480Z,146.25
2018-08-04T05:08:41.528Z,163.13
2018-08-04T05:09:41.415Z,180.00
2018-08-04T05:10:41.383Z,196.88
2018-08-04T05:11:41.344Z,208.13
2018-08-04T05:12:41.307Z,219.38
2018-08-04T05:13:41.296Z,230.63
2018-08-04T05:14:41.239Z,247.50
2018-08-04T05:15:41.208Z,253.13
2018-08-04T05:16:41.175Z,264.38
2018-08-04T05:17:41.144Z,270.00
2018-08-04T05:18:41.149Z,281.25
2018-08-04T05:19:41.067Z,292.50
2018-08-04T05:20:41.026Z,303.75
2018-08-04T05:21:41.019Z,315.00
2018-08-04T05:22:40.954Z,326.25
2018-08-04T05:23:40.930Z,343.13
2018-08-04T05:24:40.919Z,354.38
2018-08-04T05:25:40.851Z,365.63
2018-08-04T05:26:40.816Z,371.25
2018-08-04T05:27:40.787Z,371.25
2018-08-04T05:28:40.753Z,376.88
2018-08-04T05:29:40.739Z,421.88
2018-08-04T05:30:40.706Z,472.50
2018-08-04T05:31:40.641Z,506.25
2018-08-04T05:32:40.607Z,506.25
2018-08-04T05:33:40.599Z,506.25
2018-08-04T05:34:40.566Z,438.75
2018-08-04T05:35:40.506Z,399.38
2018-08-04T05:36:40.478Z,410.63
2018-08-04T05:37:40.441Z,405.00
2018-08-04T05:38:40.418Z,410.63
2018-08-04T05:39:40.369Z,410.63
2018-08-04T05:40:40.349Z,410.63
2018-08-04T05:41:40.302Z,410.63
2018-08-04T05:42:40.269Z,410.63
2018-08-04T05:43:40.310Z,405.00
2018-08-04T05:44:40.196Z,405.00
2018-08-04T05:45:40.180Z,405.00
2018-08-04T05:46:40.127Z,393.75
2018-08-04T05:47:40.113Z,388.13
2018-08-04T05:48:40.066Z,376.88
2018-08-04T05:49:40.029Z,371.25
2018-08-04T05:50:40.021Z,365.63
2018-08-04T05:51:39.954Z,360.00
2018-08-04T05:52:39.926Z,360.00
2018-08-04T05:53:39.889Z,371.25
2018-08-04T05:54:39.858Z,382.50
2018-08-04T05:55:39.856Z,399.38
2018-08-04T05:56:39.792Z,416.25
2018-08-04T05:57:39.752Z,427.50
2018-08-04T05:58:39.718Z,438.75
2018-08-04T05:59:39.691Z,450.00
2018-08-04T06:00:39.697Z,455.63
2018-08-04T06:01:39.646Z,466.88
2018-08-04T06:02:39.592Z,461.25
2018-08-04T06:03:39.547Z,450.00
2018-08-04T06:04:39.515Z,438.75
2018-08-04T06:05:39.484Z,433.13
2018-08-04T06:06:39.500Z,438.75
2018-08-04T06:07:39.415Z,450.00
2018-08-04T06:08:39.383Z,461.25
2018-08-04T06:09:39.360Z,461.25
2018-08-04T06:10:39.399Z,478.13
2018-08-04T06:11:39.382Z,489.38
2018-08-04T06:12:39.244Z,500.63
2018-08-04T06:13:39.214Z,517.50
2018-08-04T06:14:39.180Z,523.13
2018-08-04T06:15:39.142Z,528.75
2018-08-04T06:16:39.107Z,528.75
2018-08-04T06:17:39.094Z,545.63
2018-08-04T06:18:39.038Z,562.50
2018-08-04T06:19:39.011Z,590.63
2018-08-04T06:20:38.976Z,613.13
2018-08-04T06:21:38.940Z,630.00
2018-08-04T06:22:39.020Z,646.88
2018-08-04T06:23:38.867Z,675.00
2018-08-04T06:24:38.876Z,703.13
2018-08-04T06:25:38.845Z,714.38
2018-08-04T06:26:38.788Z,742.50
2018-08-04T06:27:38.830Z,731.25
2018-08-04T06:28:38.725Z,720.00
2018-08-04T06:29:38.672Z,748.13
2018-08-04T06:30:38.743Z,765.00
2018-08-04T06:31:38.622Z,798.75
2018-08-04T06:32:38.580Z,793.13
2018-08-04T06:33:38.594Z,826.88
2018-08-04T06:34:38.505Z,753.75
2018-08-04T06:35:38.461Z,725.63
2018-08-04T06:36:38.439Z,725.63
2018-08-04T06:37:38.422Z,731.25
2018-08-04T06:38:38.390Z,759.38
2018-08-04T06:39:38.401Z,798.75
2018-08-04T06:40:38.307Z,781.88
2018-08-04T06:41:38.290Z,720.00
2018-08-04T06:42:38.259Z,714.38
2018-08-04T06:43:38.195Z,703.13
2018-08-04T06:44:38.171Z,680.63
2018-08-04T06:45:38.142Z,669.38
2018-08-04T06:46:38.108Z,652.50
2018-08-04T06:47:38.110Z,630.00
2018-08-04T06:48:38.033Z,601.88
2018-08-04T06:49:38.004Z,607.50
2018-08-04T06:50:37.968Z,601.88
2018-08-04T06:51:37.940Z,641.25
2018-08-04T06:52:37.928Z,646.88
2018-08-04T06:53:37.875Z,669.38
2018-08-04T06:54:37.845Z,725.63
2018-08-04T06:55:37.802Z,686.25
2018-08-04T06:56:37.767Z,691.88
2018-08-04T06:57:37.756Z,714.38
2018-08-04T06:58:37.705Z,770.63
2018-08-04T06:59:37.674Z,770.63
2018-08-04T07:00:37.641Z,810.00
2018-08-04T07:01:37.601Z,855.00
2018-08-04T07:02:37.591Z,990.00
2018-08-04T07:03:37.540Z,1029.38
2018-08-04T07:04:37.512Z,1074.38
2018-08-04T07:05:37.480Z,1001.25
2018-08-04T07:06:37.441Z,1102.50
2018-08-04T07:07:37.431Z,1040.63
2018-08-04T07:08:37.370Z,1113.75
2018-08-04T07:09:37.338Z,1215.00
2018-08-04T07:10:37.308Z,1186.88
2018-08-04T07:11:37.278Z,1102.50
2018-08-04T07:12:37.254Z,984.38
2018-08-04T07:13:37.246Z,916.88
2018-08-04T07:14:37.184Z,894.38
2018-08-04T07:15:37.144Z,922.50
2018-08-04T07:16:47.494Z,900.00
2018-08-04T07:17:37.082Z,1006.88
2018-08-04T07:18:37.068Z,945.00
2018-08-04T07:19:37.018Z,1040.63
2018-08-04T07:20:36.983Z,1040.63
2018-08-04T07:21:36.958Z,1080.00
2018-08-04T07:22:36.931Z,1085.63
2018-08-04T07:23:36.928Z,1130.63
2018-08-04T07:24:36.865Z,1085.63
2018-08-04T07:25:36.835Z,1243.13
2018-08-04T07:26:36.796Z,1288.13
2018-08-04T07:27:36.765Z,1411.88
2018-08-04T07:28:36.733Z,1445.63
2018-08-04T07:29:36.732Z,1220.63
2018-08-04T07:30:36.677Z,1136.25
2018-08-04T07:31:36.639Z,1243.13
2018-08-04T07:32:36.617Z,1288.13
2018-08-04T07:33:36.590Z,1265.63
2018-08-04T07:34:36.585Z,1265.63
2018-08-04T07:35:36.527Z,1231.88
2018-08-04T07:36:36.503Z,1147.50
2018-08-04T07:37:36.458Z,1051.88
2018-08-04T07:38:36.430Z,995.63
2018-08-04T07:39:36.417Z,922.50
2018-08-04T07:40:36.366Z,781.88
2018-08-04T07:41:36.348Z,888.75
2018-08-04T07:42:36.315Z,967.50
2018-08-04T07:43:36.283Z,990.00
2018-08-04T07:44:36.283Z,1029.38
2018-08-04T07:45:36.220Z,1164.38
2018-08-04T07:46:36.185Z,1316.25
2018-08-04T07:47:36.193Z,1333.13
2018-08-04T07:48:36.142Z,1389.38
2018-08-04T07:49:36.094Z,1366.88
2018-08-04T07:50:36.091Z,1350.00
2018-08-04T07:51:36.034Z,1445.63
2018-08-04T07:52:36.007Z,1338.75
2018-08-04T07:53:35.992Z,1372.50
2018-08-04T07:54:46.048Z,1316.25
2018-08-04T07:55:35.945Z,1293.75
2018-08-04T07:56:35.887Z,1288.13
2018-08-04T07:57:35.859Z,1276.88
2018-08-04T07:58:35.830Z,1271.25
2018-08-04T07:59:35.807Z,1254.38
2018-08-04T08:00:35.804Z,1265.63
2018-08-04T08:01:35.746Z,1271.25
2018-08-04T08:02:35.715Z,1186.88
2018-08-04T08:03:35.695Z,1192.50
2018-08-04T08:04:35.662Z,1237.50
2018-08-04T08:05:35.641Z,1203.75
2018-08-04T08:06:35.628Z,1215.00
2018-08-04T08:07:35.572Z,1310.63
2018-08-04T08:08:35.543Z,1265.63
2018-08-04T08:09:35.516Z,1203.75
2018-08-04T08:10:35.569Z,1209.38
2018-08-04T08:11:35.489Z,1164.38
2018-08-04T08:12:35.436Z,1248.75
2018-08-04T08:13:35.410Z,1293.75
2018-08-04T08:14:35.384Z,1310.63
2018-08-04T08:15:35.347Z,1170.00
2018-08-04T08:16:35.340Z,1333.13
2018-08-04T08:17:35.299Z,1350.00
2018-08-04T08:18:35.271Z,1344.38
2018-08-04T08:19:35.238Z,1338.75
2018-08-04T08:20:35.205Z,1338.75
2018-08-04T08:21:35.210Z,1350.00
2018-08-04T08:22:35.152Z,1361.25
2018-08-04T08:23:35.136Z,1372.50
2018-08-04T08:24:35.111Z,1383.75
2018-08-04T08:25:35.084Z,1383.75
2018-08-04T08:26:35.048Z,1411.88
2018-08-04T08:27:35.044Z,1451.25
2018-08-04T08:28:35.017Z,1473.75
2018-08-04T08:29:34.968Z,1496.25
2018-08-04T08:30:34.952Z,1518.75
2018-08-04T08:31:34.975Z,1552.50
2018-08-04T08:32:34.918Z,1620.00
2018-08-04T08:33:34.865Z,1698.75
2018-08-04T08:34:34.847Z,1755.00
2018-08-04T08:35:34.821Z,1811.25
2018-08-04T08:36:34.788Z,2109.38
2018-08-04T08:37:34.796Z,2666.25
2018-08-04T08:38:34.735Z,3279.38
2018-08-04T08:39:34.709Z,3780.00
2018-08-04T08:40:34.704Z,3954.38
2018-08-04T08:41:34.661Z,4117.50
2018-08-04T08:42:34.637Z,4494.38
2018-08-04T08:43:34.638Z,4471.88
2018-08-04T08:44:34.584Z,4241.25
2018-08-04T08:45:34.564Z,4185.00
2018-08-04T08:46:34.531Z,4061.25
2018-08-04T08:47:34.505Z,4128.75
2018-08-04T08:48:34.505Z,4393.13
2018-08-04T08:49:34.461Z,4353.75
2018-08-04T08:50:34.436Z,4415.63
2018-08-04T08:51:34.404Z,4550.63
2018-08-04T08:52:34.383Z,4471.88
2018-08-04T08:53:34.506Z,4550.63
2018-08-04T08:54:34.338Z,4432.50
2018-08-04T08:55:34.320Z,4466.25
2018-08-04T08:56:34.288Z,4471.88
2018-08-04T08:57:34.262Z,4230.00
2018-08-04T08:58:34.234Z,4230.00
2018-08-04T08:59:34.249Z,4168.13
2018-08-04T09:00:34.186Z,4061.25
2018-08-04T09:01:34.164Z,4140.00
2018-08-04T09:02:34.148Z,4106.25
2018-08-04T09:03:34.122Z,4106.25
2018-08-04T09:04:34.109Z,4033.13
2018-08-04T09:05:34.067Z,3915.00
2018-08-04T09:06:34.048Z,4117.50
2018-08-04T09:07:34.025Z,4252.50
2018-08-04T09:08:34.038Z,4140.00
2018-08-04T09:09:34.001Z,4044.38
2018-08-04T09:10:33.947Z,3931.88
2018-08-04T09:11:33.922Z,3813.75
2018-08-04T09:12:33.904Z,3757.50
2018-08-04T09:13:33.876Z,3971.25
2018-08-04T09:14:33.884Z,4190.63
2018-08-04T09:15:33.897Z,4201.88
2018-08-04T09:16:33.815Z,4078.13
2018-08-04T09:17:33.795Z,4145.63
2018-08-04T09:18:33.757Z,4275.00
2018-08-04T09:19:33.734Z,4359.38
2018-08-04T09:20:33.749Z,4246.88
2018-08-04T09:21:33.708Z,4156.88
2018-08-04T09:22:33.668Z,4145.63
2018-08-04T09:23:33.644Z,4196.25
2018-08-04T09:24:33.646Z,4280.63
2018-08-04T09:25:33.596Z,4320.00
2018-08-04T09:26:33.579Z,4218.75
2018-08-04T09:27:33.552Z,3960.00
2018-08-04T09:28:33.533Z,4196.25
2018-08-04T09:29:33.615Z,4348.13
2018-08-04T09:30:33.504Z,3588.75
2018-08-04T09:31:33.455Z,3487.50
2018-08-04T09:32:33.431Z,4140.00
2018-08-04T09:33:33.410Z,4072.50
2018-08-04T09:34:33.395Z,4050.00
2018-08-04T09:35:33.397Z,4353.75
2018-08-04T09:36:33.341Z,4426.88
2018-08-04T09:37:33.319Z,4179.38
2018-08-04T09:38:33.300Z,3993.75
2018-08-04T09:39:33.279Z,3808.13
2018-08-04T09:40:33.280Z,3836.25
2018-08-04T09:41:33.227Z,4050.00
2018-08-04T09:42:33.201Z,4128.75
2018-08-04T09:43:33.180Z,4218.75
2018-08-04T09:44:33.160Z,4117.50
2018-08-04T09:45:33.155Z,4021.88
2018-08-04T09:46:33.116Z,4196.25
2018-08-04T09:47:33.095Z,4078.13
2018-08-04T09:48:33.070Z,3971.25
2018-08-04T09:49:33.052Z,3915.00
2018-08-04T09:50:33.043Z,4038.75
2018-08-04T09:51:32.999Z,4044.38
2018-08-04T09:52:33.045Z,4100.63
2018-08-04T09:53:32.959Z,4297.50
2018-08-04T09:54:32.929Z,4190.63
2018-08-04T09:55:32.936Z,4280.63
2018-08-04T09:56:32.886Z,4308.75
2018-08-04T09:57:32.875Z,4095.00
2018-08-04T09:58:32.852Z,4173.75
2018-08-04T09:59:32.862Z,4213.13
2018-08-04T10:00:32.825Z,4263.75
2018-08-04T10:01:32.784Z,4370.63
2018-08-04T10:02:32.750Z,4331.25
2018-08-04T10:03:32.728Z,4213.13
2018-08-04T10:04:32.710Z,4168.13
2018-08-04T10:05:32.704Z,4190.63
2018-08-04T10:06:32.675Z,4156.88
2018-08-04T10:07:32.648Z,4404.38
2018-08-04T10:08:32.619Z,4381.88
2018-08-04T10:09:32.596Z,4348.13
2018-08-04T10:10:32.605Z,4218.75
2018-08-04T10:11:32.568Z,4021.88
2018-08-04T10:12:32.548Z,4111.88
2018-08-04T10:13:32.523Z,4185.00
2018-08-04T10:14:32.497Z,4185.00
2018-08-04T10:15:32.497Z,4201.88
2018-08-04T10:16:32.450Z,4185.00
2018-08-04T10:17:32.431Z,4134.38
2018-08-04T10:18:32.417Z,4151.25
2018-08-04T10:19:32.397Z,4066.88
2018-08-04T10:20:32.412Z,4145.63
2018-08-04T10:21:32.352Z,4190.63
2018-08-04T10:22:32.324Z,4258.13
2018-08-04T10:23:32.304Z,4426.88
2018-08-04T10:24:32.286Z,4308.75
2018-08-04T10:25:32.288Z,4162.50
2018-08-04T10:26:32.241Z,4224.38
2018-08-04T10:27:32.213Z,4370.63
2018-08-04T10:28:32.201Z,4258.13
2018-08-04T10:29:32.174Z,4044.38
2018-08-04T10:30:32.183Z,4162.50
2018-08-04T10:31:32.135Z,4173.75
2018-08-04T10:32:32.173Z,4134.38
2018-08-04T10:33:32.095Z,4162.50
2018-08-04T10:34:32.071Z,4078.13
2018-08-04T10:35:32.064Z,4111.88
2018-08-04T10:36:32.017Z,4151.25
2018-08-04T10:37:32.000Z,4083.75
2018-08-04T10:38:32.033Z,4224.38
2018-08-04T10:39:31.958Z,4381.88
2018-08-04T10:40:31.949Z,4156.88
2018-08-04T10:41:31.917Z,4016.25
2018-08-04T10:42:31.895Z,4162.50
2018-08-04T10:43:31.876Z,4196.25
2018-08-04T10:44:31.852Z,4095.00
2018-08-04T10:45:31.843Z,3920.63
2018-08-04T10:46:31.803Z,3870.00
2018-08-04T10:47:31.778Z,3836.25
2018-08-04T10:48:31.759Z,3892.50
2018-08-04T10:49:31.808Z,4010.63
2018-08-04T10:50:31.741Z,4128.75
2018-08-04T10:51:31.699Z,4111.88
2018-08-04T10:52:31.672Z,4016.25
2018-08-04T10:53:31.646Z,3909.38
2018-08-04T10:54:31.675Z,3577.50
2018-08-04T10:55:31.636Z,3510.00
2018-08-04T10:56:31.585Z,3892.50
2018-08-04T10:57:31.558Z,4286.25
2018-08-04T10:58:31.549Z,4241.25
2018-08-04T10:59:31.509Z,3976.88
2018-08-04T11:00:31.557Z,3943.13
2018-08-04T11:01:31.481Z,4066.88
2018-08-04T11:02:31.454Z,3943.13
2018-08-04T11:03:31.431Z,3999.38
2018-08-04T11:04:31.400Z,4078.13
2018-08-04T11:05:31.404Z,4128.75
2018-08-04T11:06:31.364Z,3960.00
2018-08-04T11:07:31.344Z,4021.88
2018-08-04T11:08:31.321Z,4275.00
2018-08-04T11:09:31.301Z,4061.25
2018-08-04T11:10:31.298Z,3909.38
2018-08-04T11:11:31.248Z,3960.00
2018-08-04T11:12:31.265Z,4095.00
2018-08-04T11:13:31.219Z,4061.25
2018-08-04T11:14:31.196Z,3993.75
2018-08-04T11:15:31.197Z,4027.50
2018-08-04T11:16:31.143Z,3937.50
2018-08-04T11:17:31.129Z,4010.63
2018-08-04T11:18:31.104Z,4145.63
2018-08-04T11:19:31.088Z,4044.38
2018-08-04T11:20:31.090Z,3830.63
2018-08-04T11:21:31.046Z,3830.63
2018-08-04T11:22:31.032Z,4038.75
2018-08-04T11:23:31.008Z,4151.25
2018-08-04T11:24:30.983Z,4201.88
2018-08-04T11:25:30.990Z,3937.50
2018-08-04T11:26:30.950Z,4010.63
2018-08-04T11:27:30.947Z,3841.88
2018-08-04T11:28:30.899Z,4336.88
2018-08-04T11:29:30.877Z,3380.63
2018-08-04T11:30:30.861Z,3971.25
2018-08-04T11:31:30.886Z,4117.50
2018-08-04T11:32:30.844Z,3459.38
2018-08-04T11:33:30.804Z,3903.75
2018-08-04T11:34:30.790Z,3988.13
2018-08-04T11:35:30.760Z,3712.50
2018-08-04T11:36:30.760Z,3870.00
2018-08-04T11:37:30.714Z,4100.63
2018-08-04T11:38:30.709Z,3836.25
2018-08-04T11:39:30.676Z,3943.13
2018-08-04T11:40:30.660Z,4100.63
2018-08-04T11:41:30.642Z,4263.75
2018-08-04T11:42:30.635Z,4291.88
2018-08-04T11:43:30.598Z,4038.75
2018-08-04T11:44:30.582Z,4066.88
2018-08-04T11:45:30.616Z,3858.75
2018-08-04T11:46:30.543Z,3768.75
2018-08-04T11:47:30.542Z,3459.38
2018-08-04T11:48:30.493Z,3650.63
2018-08-04T11:49:30.475Z,3915.00
2018-08-04T11:50:30.452Z,4117.50
2018-08-04T11:51:30.483Z,3802.50
2018-08-04T11:52:30.442Z,3858.75
2018-08-04T11:53:30.411Z,3633.75
2018-08-04T11:54:30.382Z,3785.63
2018-08-04T11:55:30.367Z,3594.38
2018-08-04T11:56:30.334Z,3481.88
2018-08-04T11:57:30.340Z,3330.00
2018-08-04T11:58:30.343Z,3397.50
2018-08-04T11:59:30.279Z,3380.63
2018-08-04T12:00:30.284Z,3425.63
2018-08-04T12:01:30.235Z,3470.63
2018-08-04T12:02:30.219Z,3397.50
2018-08-04T12:03:30.216Z,3076.88
2018-08-04T12:04:30.173Z,3448.13
2018-08-04T12:05:30.160Z,3352.50
2018-08-04T12:06:30.134Z,3144.38
2018-08-04T12:07:30.112Z,3330.00
2018-08-04T12:08:30.111Z,3830.63
2018-08-04T12:09:30.063Z,3886.88
2018-08-04T12:10:30.042Z,3774.38
2018-08-04T12:11:30.024Z,3510.00
2018-08-04T12:12:30.046Z,3751.88
2018-08-04T12:13:29.987Z,3982.50
2018-08-04T12:14:29.964Z,3898.13
2018-08-04T12:15:29.935Z,3853.13
2018-08-04T12:16:29.932Z,3510.00
2018-08-04T12:17:29.902Z,3532.50
2018-08-04T12:18:29.911Z,2880.00
2018-08-04T12:19:29.859Z,2621.25
2018-08-04T12:20:29.834Z,2716.88
2018-08-04T12:21:29.809Z,2930.63
2018-08-04T12:22:29.793Z,2981.25
2018-08-04T12:23:29.792Z,3352.50
2018-08-04T12:24:29.756Z,3560.63
2018-08-04T12:25:29.748Z,3532.50
2018-08-04T12:26:29.713Z,3386.25
2018-08-04T12:27:29.697Z,3110.63
2018-08-04T12:28:29.689Z,3375.00
2018-08-04T12:29:29.653Z,3763.13
2018-08-04T12:30:29.633Z,3841.88
2018-08-04T12:31:29.660Z,3903.75
2018-08-04T12:32:29.584Z,3836.25
2018-08-04T12:33:29.588Z,3825.00
2018-08-04T12:34:29.545Z,3954.38